createdAt,value
2023-04-16T00:00:00.666Z,98384.00
2023-04-16T00:02:29.742Z,98395.44
2023-04-16T00:04:57.304Z,98393.66
2023-04-16T00:07:24.619Z,98390.19
2023-04-16T00:09:52.908Z,98389.31
2023-04-16T00:12:20.465Z,98389.25
2023-04-16T00:14:47.619Z,98384.81
2023-04-16T00:17:15.509Z,98388.19
2023-04-16T00:19:43.054Z,98384.50
2023-04-16T00:22:10.455Z,98393.13
2023-04-16T00:24:37.382Z,98382.47
2023-04-16T00:27:04.652Z,98388.69
2023-04-16T00:29:32.358Z,98378.06
2023-04-16T00:31:59.853Z,98379.84
2023-04-16T00:34:26.964Z,98385.97
2023-04-16T00:36:54.335Z,98385.97
2023-04-16T00:39:21.581Z,98391.16
2023-04-16T00:41:49.369Z,98383.31
2023-04-16T00:44:16.355Z,98382.25
2023-04-16T00:46:44.678Z,98388.28
2023-04-16T00:49:13.599Z,98388.28
2023-04-16T00:51:41.606Z,98386.56
2023-04-16T00:54:08.698Z,98384.75
2023-04-16T00:56:37.005Z,98384.50
2023-04-16T00:59:05.459Z,98392.19
2023-04-16T01:01:33.188Z,98380.78
2023-04-16T01:04:00.592Z,98378.06
2023-04-16T01:06:28.352Z,98392.03
2023-04-16T01:08:55.429Z,98388.47
2023-04-16T01:11:24.617Z,98390.13
2023-04-16T01:13:52.984Z,98398.00
2023-04-16T01:16:21.204Z,98393.72
2023-04-16T01:18:48.557Z,98394.84
2023-04-16T01:21:16.106Z,98402.66
2023-04-16T01:23:43.200Z,98395.69
2023-04-16T01:26:10.930Z,98407.06
2023-04-16T01:28:38.242Z,98409.75
2023-04-16T01:31:06.054Z,98405.41
2023-04-16T01:33:33.200Z,98414.09
2023-04-16T01:36:00.627Z,98409.75
2023-04-16T01:38:27.834Z,98411.56
2023-04-16T01:40:59.477Z,98407.13
2023-04-16T01:43:26.654Z,98404.56
2023-04-16T01:46:19.016Z,98402.00
2023-04-16T01:48:47.314Z,98401.94
2023-04-16T01:51:15.149Z,98394.94
2023-04-16T01:53:42.361Z,98405.41
2023-04-16T01:56:09.897Z,98410.56
2023-04-16T01:58:37.503Z,98415.69
2023-04-16T02:01:06.015Z,98412.94
2023-04-16T02:03:34.055Z,98407.59
2023-04-16T02:06:01.805Z,98406.81
2023-04-16T02:08:29.189Z,98414.97
2023-04-16T02:10:57.762Z,98414.97
2023-04-16T02:13:26.285Z,98426.31
2023-04-16T02:15:54.216Z,98421.06
2023-04-16T02:18:21.402Z,98422.69
2023-04-16T02:20:49.901Z,98428.84
2023-04-16T02:23:17.174Z,98428.84
2023-04-16T02:25:47.345Z,98427.91
2023-04-16T02:28:17.871Z,98425.16
2023-04-16T02:30:47.177Z,98431.25
2023-04-16T02:33:15.786Z,98436.59
2023-04-16T02:35:43.696Z,98441.94
2023-04-16T02:38:10.785Z,98434.09
2023-04-16T02:40:38.228Z,98442.78
2023-04-16T02:43:05.461Z,98440.94
2023-04-16T02:45:32.926Z,98441.00
2023-04-16T02:48:00.223Z,98442.72
2023-04-16T02:50:27.662Z,98444.50
2023-04-16T02:52:54.615Z,98442.78
2023-04-16T02:55:21.861Z,98446.41
2023-04-16T02:57:49.074Z,98438.69
2023-04-16T03:00:16.556Z,98437.88
2023-04-16T03:02:44.950Z,98441.44
2023-04-16T03:05:12.806Z,98446.75
2023-04-16T03:07:40.825Z,98450.28
2023-04-16T03:10:09.296Z,98446.81
2023-04-16T03:12:36.444Z,98462.50
2023-04-16T03:15:04.180Z,98452.00
2023-04-16T03:17:31.219Z,98447.66
2023-04-16T03:19:58.767Z,98449.50
2023-04-16T03:22:25.835Z,98447.84
2023-04-16T03:24:53.377Z,98440.81
2023-04-16T03:27:20.394Z,98452.16
2023-04-16T03:29:47.859Z,98449.50
2023-04-16T03:32:14.890Z,98448.53
2023-04-16T03:34:42.281Z,98453.78
2023-04-16T03:37:12.083Z,98458.22
2023-04-16T03:39:39.646Z,98455.69
2023-04-16T03:42:06.684Z,98458.38
2023-04-16T03:44:34.398Z,98456.75
2023-04-16T03:47:01.579Z,98459.38
2023-04-16T03:49:28.857Z,98463.00
2023-04-16T03:51:55.865Z,98458.72
2023-04-16T03:54:23.211Z,98460.59
2023-04-16T03:56:50.246Z,98463.59
2023-04-16T03:59:17.889Z,98456.78
2023-04-16T04:01:45.126Z,98465.59
2023-04-16T04:04:12.761Z,98470.13
2023-04-16T04:06:39.857Z,98487.69
2023-04-16T04:09:07.559Z,98494.69
2023-04-16T04:11:36.072Z,98489.44
2023-04-16T04:14:05.447Z,98498.81
2023-04-16T04:16:33.342Z,98498.72
2023-04-16T04:19:00.979Z,98502.13
2023-04-16T04:21:30.850Z,98498.75
2023-04-16T04:23:58.736Z,98501.34
2023-04-16T04:26:26.345Z,98509.13
2023-04-16T04:28:54.080Z,98508.19
2023-04-16T04:31:21.449Z,98517.75
2023-04-16T04:33:49.334Z,98519.50
2023-04-16T04:36:16.926Z,98522.94
2023-04-16T04:38:44.426Z,98523.84
2023-04-16T04:41:11.571Z,98526.41
2023-04-16T04:43:38.946Z,98531.63
2023-04-16T04:46:06.027Z,98538.72
2023-04-16T04:48:33.505Z,98550.13
2023-04-16T04:51:02.980Z,98545.66
2023-04-16T04:53:32.372Z,98542.03
2023-04-16T04:56:10.987Z,98545.44
2023-04-16T04:58:39.799Z,98544.69
2023-04-16T05:01:07.070Z,98552.47
2023-04-16T05:03:34.602Z,98554.13
2023-04-16T05:06:01.685Z,98556.88
2023-04-16T05:08:29.052Z,98565.63
2023-04-16T05:10:56.362Z,98563.78
2023-04-16T05:13:23.807Z,98569.84
2023-04-16T05:15:50.816Z,98568.84
2023-04-16T05:18:18.270Z,98573.03
2023-04-16T05:20:45.361Z,98578.25
2023-04-16T05:23:12.840Z,98576.34
2023-04-16T05:25:39.979Z,98572.81
2023-04-16T05:28:07.344Z,98581.50
2023-04-16T05:30:34.390Z,98587.56
2023-04-16T05:33:01.676Z,98590.13
2023-04-16T05:35:28.823Z,98589.19
2023-04-16T05:37:56.476Z,98593.34
2023-04-16T05:40:23.503Z,98585.44
2023-04-16T05:42:50.942Z,98594.88
2023-04-16T05:45:18.134Z,98595.56
2023-04-16T05:47:45.643Z,98595.44
2023-04-16T05:50:12.737Z,98597.09
2023-04-16T05:52:40.028Z,98606.47
2023-04-16T05:55:07.351Z,98606.34
2023-04-16T05:57:34.741Z,98612.25
2023-04-16T06:00:01.687Z,98606.94
2023-04-16T06:02:31.801Z,98611.09
2023-04-16T06:04:59.129Z,98609.91
2023-04-16T06:07:27.181Z,98612.50
2023-04-16T06:09:55.324Z,98623.88
2023-04-16T06:12:22.734Z,98619.59
2023-04-16T06:14:50.038Z,98622.97
2023-04-16T06:17:17.443Z,98624.47
2023-04-16T06:19:45.537Z,98629.75
2023-04-16T06:22:13.061Z,98630.41
2023-04-16T06:24:40.284Z,98630.31
2023-04-16T06:27:07.884Z,98629.28
2023-04-16T06:29:41.196Z,98629.13
2023-04-16T06:32:09.235Z,98628.00
2023-04-16T06:34:37.349Z,98623.44
2023-04-16T06:37:04.782Z,98629.34
2023-04-16T06:39:33.262Z,98626.19
2023-04-16T06:42:01.504Z,98625.88
2023-04-16T06:44:28.552Z,98626.53
2023-04-16T06:46:56.096Z,98625.53
2023-04-16T06:49:23.291Z,98623.56
2023-04-16T06:51:50.756Z,98621.00
2023-04-16T06:54:18.973Z,98628.84
2023-04-16T06:56:46.275Z,98609.63
2023-04-16T06:59:13.606Z,98625.28
2023-04-16T07:01:42.077Z,98619.03
2023-04-16T07:04:09.684Z,98622.31
2023-04-16T07:06:37.240Z,98629.09
2023-04-16T07:09:04.488Z,98635.94
2023-04-16T07:11:31.930Z,98634.75
2023-04-16T07:13:59.165Z,98632.63
2023-04-16T07:16:26.800Z,98640.28
2023-04-16T07:18:53.871Z,98641.84
2023-04-16T07:21:22.389Z,98640.88
2023-04-16T07:23:49.338Z,98641.66
2023-04-16T07:26:16.870Z,98647.72
2023-04-16T07:28:44.256Z,98652.03
2023-04-16T07:31:11.868Z,98646.94
2023-04-16T07:33:39.002Z,98650.22
2023-04-16T07:36:07.355Z,98658.13
2023-04-16T07:38:34.796Z,98659.72
2023-04-16T07:41:02.869Z,98662.09
2023-04-16T07:43:30.108Z,98665.25
2023-04-16T07:45:57.371Z,98673.75
2023-04-16T07:48:24.588Z,98673.53
2023-04-16T07:50:52.573Z,98674.31
2023-04-16T07:53:19.828Z,98676.84
2023-04-16T07:55:47.316Z,98674.84
2023-04-16T07:58:14.856Z,98676.13
2023-04-16T08:00:42.412Z,98678.47
2023-04-16T08:03:09.843Z,98686.13
2023-04-16T08:05:37.227Z,98685.41
2023-04-16T08:08:04.468Z,98685.78
2023-04-16T08:10:31.861Z,98688.91
2023-04-16T08:13:01.661Z,98691.56
2023-04-16T08:15:29.543Z,98685.81
2023-04-16T08:17:56.760Z,98687.03
2023-04-16T08:20:24.232Z,98689.56
2023-04-16T08:22:51.426Z,98688.25
2023-04-16T08:25:18.915Z,98690.88
2023-04-16T08:27:46.024Z,98692.47
2023-04-16T08:30:13.329Z,98691.44
2023-04-16T08:32:40.531Z,98695.50
2023-04-16T08:35:08.393Z,98697.28
2023-04-16T08:37:35.506Z,98696.22
2023-04-16T08:40:03.626Z,98704.22
2023-04-16T08:42:41.135Z,98705.91
2023-04-16T08:45:16.195Z,98704.94
2023-04-16T08:47:52.312Z,98713.78
2023-04-16T08:50:30.430Z,98716.50
2023-04-16T08:53:00.862Z,98715.56
2023-04-16T08:55:42.061Z,98712.09
2023-04-16T08:58:18.652Z,98716.97
2023-04-16T09:00:47.011Z,98711.53
2023-04-16T09:03:14.172Z,98714.13
2023-04-16T09:05:44.057Z,98720.09
2023-04-16T09:08:11.267Z,98726.03
2023-04-16T09:10:38.662Z,98721.66
2023-04-16T09:13:05.829Z,98715.66
2023-04-16T09:15:35.724Z,98722.06
2023-04-16T09:18:02.703Z,98729.47
2023-04-16T09:20:30.133Z,98729.38
2023-04-16T09:22:57.266Z,98732.88
2023-04-16T09:25:26.466Z,98729.91
2023-04-16T09:27:53.708Z,98734.97
2023-04-16T09:30:27.169Z,98735.75
2023-04-16T09:33:23.346Z,98736.56
2023-04-16T09:35:53.143Z,98734.53
2023-04-16T09:38:22.445Z,98735.38
2023-04-16T09:41:08.041Z,98738.78
2023-04-16T09:43:35.806Z,98742.13
2023-04-16T09:46:08.252Z,98736.44
2023-04-16T09:48:36.109Z,98740.34
2023-04-16T09:51:07.668Z,98739.00
2023-04-16T09:53:36.072Z,98745.44
2023-04-16T09:56:07.694Z,98744.31
2023-04-16T09:58:38.620Z,98737.81
2023-04-16T10:01:13.851Z,98738.25
2023-04-16T10:03:41.318Z,98735.19
2023-04-16T10:06:20.806Z,98735.69
2023-04-16T10:08:53.180Z,98735.47
2023-04-16T10:11:21.459Z,98742.66
2023-04-16T10:13:48.893Z,98739.31
2023-04-16T10:16:16.651Z,98743.84
2023-04-16T10:18:46.945Z,98748.75
2023-04-16T10:21:16.381Z,98750.88
2023-04-16T10:23:44.311Z,98748.66
2023-04-16T10:26:11.817Z,98751.03
2023-04-16T10:28:39.491Z,98758.38
2023-04-16T10:31:09.775Z,98744.69
2023-04-16T10:33:41.351Z,98746.25
2023-04-16T10:36:13.673Z,98742.56
2023-04-16T10:38:52.479Z,98751.47
2023-04-16T10:41:23.034Z,98748.34
2023-04-16T10:43:51.660Z,98750.00
2023-04-16T10:46:31.766Z,98753.28
2023-04-16T10:49:13.345Z,98745.03
2023-04-16T10:51:41.454Z,98740.88
2023-04-16T10:54:08.367Z,98741.53
2023-04-16T10:56:37.592Z,98747.31
2023-04-16T10:59:10.908Z,98745.06
2023-04-16T11:01:46.627Z,98742.50
2023-04-16T11:04:19.786Z,98749.72
2023-04-16T11:07:14.980Z,98742.69
2023-04-16T11:10:00.728Z,98736.44
2023-04-16T11:12:46.547Z,98747.56
2023-04-16T11:15:15.535Z,98741.97
2023-04-16T11:17:48.532Z,98739.88
2023-04-16T11:20:20.565Z,98749.84
2023-04-16T11:22:56.160Z,98742.25
2023-04-16T11:25:31.739Z,98743.13
2023-04-16T11:27:59.424Z,98744.06
2023-04-16T11:30:38.616Z,98744.06
2023-04-16T11:33:09.300Z,98747.84
2023-04-16T11:35:36.683Z,98740.75
2023-04-16T11:38:06.051Z,98741.88
2023-04-16T11:40:33.976Z,98738.94
2023-04-16T11:43:15.542Z,98744.25
2023-04-16T11:46:10.263Z,98749.41
2023-04-16T11:48:52.753Z,98744.84
2023-04-16T11:51:20.733Z,98743.81
2023-04-16T11:53:53.453Z,98742.66
2023-04-16T11:56:29.569Z,98752.44
2023-04-16T11:59:16.092Z,98736.50
2023-04-16T12:01:56.133Z,98739.50
2023-04-16T12:04:27.068Z,98738.09
2023-04-16T12:07:15.007Z,98739.34
2023-04-16T12:09:44.369Z,98725.94
2023-04-16T12:12:32.649Z,98731.75
2023-04-16T12:15:03.958Z,98731.75
2023-04-16T12:17:36.991Z,98733.91
2023-04-16T12:20:13.637Z,98731.53
2023-04-16T12:22:47.364Z,98736.41
2023-04-16T12:25:17.546Z,98731.75
2023-04-16T12:27:46.521Z,98731.22
2023-04-16T12:30:19.354Z,98736.06
2023-04-16T12:32:52.477Z,98731.78
2023-04-16T12:35:31.646Z,98729.97
2023-04-16T12:38:00.268Z,98726.91
2023-04-16T12:40:27.828Z,98719.47
2023-04-16T12:42:55.602Z,98725.34
2023-04-16T12:45:23.167Z,98722.53
2023-04-16T12:47:50.761Z,98727.00
2023-04-16T12:50:18.614Z,98724.53
2023-04-16T12:52:45.684Z,98726.34
2023-04-16T12:55:14.263Z,98722.34
2023-04-16T12:57:41.832Z,98723.50
2023-04-16T13:00:10.971Z,98726.16
2023-04-16T13:02:38.407Z,98721.94
2023-04-16T13:05:06.570Z,98721.53
2023-04-16T13:07:34.201Z,98719.97
2023-04-16T13:10:01.969Z,98717.19
2023-04-16T13:12:29.126Z,98725.38
2023-04-16T13:14:56.547Z,98719.41
2023-04-16T13:17:23.561Z,98716.53
2023-04-16T13:19:51.051Z,98722.53
2023-04-16T13:22:18.443Z,98721.06
2023-04-16T13:24:46.513Z,98726.06
2023-04-16T13:27:16.129Z,98719.47
2023-04-16T13:29:43.431Z,98719.91
2023-04-16T13:32:10.551Z,98726.13
2023-04-16T13:34:40.285Z,98724.31
2023-04-16T13:37:08.244Z,98717.81
2023-04-16T13:39:36.162Z,98719.63
2023-04-16T13:42:03.593Z,98713.97
2023-04-16T13:44:31.115Z,98715.22
2023-04-16T13:46:59.075Z,98707.19
2023-04-16T13:49:26.870Z,98712.63
2023-04-16T13:51:54.747Z,98709.84
2023-04-16T13:54:23.378Z,98721.19
2023-04-16T13:56:51.941Z,98712.56
2023-04-16T13:59:21.052Z,98711.63
2023-04-16T14:01:48.538Z,98715.53
2023-04-16T14:04:16.140Z,98715.22
2023-04-16T14:06:43.248Z,98711.00
2023-04-16T14:09:11.179Z,98717.28
2023-04-16T14:11:38.367Z,98711.25
2023-04-16T14:14:06.122Z,98700.63
2023-04-16T14:16:33.953Z,98705.44
2023-04-16T14:19:01.341Z,98700.94
2023-04-16T14:21:28.776Z,98703.63
2023-04-16T14:23:56.248Z,98703.94
2023-04-16T14:26:23.429Z,98702.44
2023-04-16T14:28:51.582Z,98696.78
2023-04-16T14:31:20.138Z,98707.94
2023-04-16T14:33:52.734Z,98714.84
2023-04-16T14:36:20.491Z,98715.03
2023-04-16T14:38:48.247Z,98714.16
2023-04-16T14:41:15.298Z,98715.09
2023-04-16T14:43:44.378Z,98712.53
2023-04-16T14:46:11.575Z,98716.16
2023-04-16T14:48:39.043Z,98709.75
2023-04-16T14:51:07.282Z,98719.72
2023-04-16T14:53:36.616Z,98715.34
2023-04-16T14:56:04.763Z,98713.13
2023-04-16T14:58:33.857Z,98718.78
2023-04-16T15:01:02.289Z,98714.94
2023-04-16T15:03:31.381Z,98722.50
2023-04-16T15:05:58.631Z,98716.97
2023-04-16T15:08:26.161Z,98717.69
2023-04-16T15:10:53.130Z,98719.13
2023-04-16T15:13:20.972Z,98719.75
2023-04-16T15:15:48.420Z,98716.13
2023-04-16T15:18:16.473Z,98715.47
2023-04-16T15:20:43.659Z,98713.59
2023-04-16T15:23:11.235Z,98713.06
2023-04-16T15:25:38.484Z,98720.22
2023-04-16T15:28:06.818Z,98709.13
2023-04-16T15:30:34.374Z,98708.38
2023-04-16T15:33:01.953Z,98710.00
2023-04-16T15:35:29.119Z,98715.88
2023-04-16T15:37:56.438Z,98714.16
2023-04-16T15:40:25.770Z,98713.94
2023-04-16T15:42:53.055Z,98715.56
2023-04-16T15:45:21.129Z,98722.47
2023-04-16T15:47:51.342Z,98714.16
2023-04-16T15:50:20.084Z,98715.97
2023-04-16T15:52:48.713Z,98712.97
2023-04-16T15:55:18.527Z,98712.13
2023-04-16T15:57:46.041Z,98718.00
2023-04-16T16:00:14.702Z,98723.63
2023-04-16T16:02:45.615Z,98728.75
2023-04-16T16:05:16.943Z,98727.56
2023-04-16T16:07:44.572Z,98735.06
2023-04-16T16:10:13.335Z,98734.81
2023-04-16T16:12:41.582Z,98735.97
2023-04-16T16:15:11.305Z,98733.38
2023-04-16T16:17:39.425Z,98744.81
2023-04-16T16:20:10.189Z,98734.44
2023-04-16T16:22:38.377Z,98737.13
2023-04-16T16:25:07.300Z,98737.47
2023-04-16T16:27:36.689Z,98747.72
2023-04-16T16:30:06.654Z,98742.34
2023-04-16T16:32:34.177Z,98753.19
2023-04-16T16:35:01.750Z,98744.56
2023-04-16T16:37:30.869Z,98748.91
2023-04-16T16:39:58.032Z,98745.41
2023-04-16T16:42:26.657Z,98749.00
2023-04-16T16:44:55.378Z,98758.34
2023-04-16T16:47:24.884Z,98749.94
2023-04-16T16:49:52.295Z,98758.69
2023-04-16T16:52:23.916Z,98765.66
2023-04-16T16:54:52.925Z,98763.00
2023-04-16T16:57:20.397Z,98764.09
2023-04-16T16:59:48.614Z,98774.75
2023-04-16T17:02:17.093Z,98767.19
2023-04-16T17:04:44.805Z,98770.63
2023-04-16T17:07:12.363Z,98769.03
2023-04-16T17:09:40.977Z,98772.44
2023-04-16T17:12:08.597Z,98776.81
2023-04-16T17:14:36.006Z,98781.19
2023-04-16T17:17:03.709Z,98784.84
2023-04-16T17:19:31.100Z,98790.25
2023-04-16T17:21:58.585Z,98790.66
2023-04-16T17:24:26.837Z,98793.34
2023-04-16T17:26:54.379Z,98796.84
2023-04-16T17:29:25.932Z,98799.69
2023-04-16T17:31:53.882Z,98801.22
2023-04-16T17:34:21.838Z,98806.03
2023-04-16T17:36:52.327Z,98812.88
2023-04-16T17:39:21.018Z,98821.38
2023-04-16T17:41:54.217Z,98823.75
2023-04-16T17:44:23.152Z,98824.13
2023-04-16T17:46:51.403Z,98828.31
2023-04-16T17:49:19.107Z,98825.31
2023-04-16T17:51:46.890Z,98826.75
2023-04-16T17:54:14.370Z,98834.25
2023-04-16T17:56:42.917Z,98841.72
2023-04-16T17:59:11.598Z,98842.00
2023-04-16T18:01:39.709Z,98850.28
2023-04-16T18:04:07.762Z,98846.56
2023-04-16T18:06:36.933Z,98848.63
2023-04-16T18:09:07.294Z,98857.72
2023-04-16T18:11:37.687Z,98856.28
2023-04-16T18:14:05.780Z,98854.84
2023-04-16T18:16:33.622Z,98864.97
2023-04-16T18:19:01.141Z,98860.00
2023-04-16T18:21:31.959Z,98865.56
2023-04-16T18:24:01.029Z,98877.50
2023-04-16T18:26:29.859Z,98871.69
2023-04-16T18:28:57.755Z,98877.06
2023-04-16T18:31:25.542Z,98887.94
2023-04-16T18:33:58.153Z,98890.00
2023-04-16T18:36:27.522Z,98899.94
2023-04-16T18:39:02.149Z,98900.19
2023-04-16T18:41:31.429Z,98905.91
2023-04-16T18:43:59.041Z,98913.34
2023-04-16T18:46:27.596Z,98914.47
2023-04-16T18:48:55.372Z,98911.09
2023-04-16T18:51:22.891Z,98916.53
2023-04-16T18:53:51.429Z,98916.59
2023-04-16T18:56:19.137Z,98922.06
2023-04-16T18:58:47.824Z,98922.22
2023-04-16T19:01:16.682Z,98922.47
2023-04-16T19:03:44.208Z,98927.94
2023-04-16T19:06:11.612Z,98925.63
2023-04-16T19:08:39.109Z,98928.50
2023-04-16T19:11:07.176Z,98935.63
2023-04-16T19:13:34.467Z,98938.28
2023-04-16T19:16:02.308Z,98937.50
2023-04-16T19:18:29.429Z,98937.06
2023-04-16T19:21:01.179Z,98942.28
2023-04-16T19:23:28.894Z,98938.13
2023-04-16T19:25:57.161Z,98935.91
2023-04-16T19:28:25.622Z,98937.59
2023-04-16T19:30:54.154Z,98942.13
2023-04-16T19:33:21.461Z,98944.94
2023-04-16T19:35:49.930Z,98943.25
2023-04-16T19:38:16.880Z,98947.84
2023-04-16T19:40:46.964Z,98949.16
2023-04-16T19:43:14.218Z,98953.75
2023-04-16T19:45:46.599Z,98947.13
2023-04-16T19:48:14.611Z,98954.69
2023-04-16T19:50:42.986Z,98956.56
2023-04-16T19:53:12.294Z,98954.19
2023-04-16T19:55:40.945Z,98956.19
2023-04-16T19:58:09.281Z,98961.88
2023-04-16T20:00:40.872Z,98959.38
2023-04-16T20:03:08.221Z,98958.75
2023-04-16T20:05:35.760Z,98954.56
2023-04-16T20:08:02.865Z,98958.91
2023-04-16T20:10:31.645Z,98962.78
2023-04-16T20:12:59.059Z,98967.06
2023-04-16T20:15:28.824Z,98960.22
2023-04-16T20:17:56.467Z,98962.94
2023-04-16T20:20:23.874Z,98967.31
2023-04-16T20:22:51.035Z,98973.44
2023-04-16T20:25:21.758Z,98967.38
2023-04-16T20:27:50.136Z,98970.16
2023-04-16T20:30:17.595Z,98966.81
2023-04-16T20:32:44.858Z,98966.94
2023-04-16T20:35:12.840Z,98970.44
2023-04-16T20:37:42.339Z,98964.44
2023-04-16T20:40:11.085Z,98967.22
2023-04-16T20:42:38.473Z,98961.09
2023-04-16T20:45:07.462Z,98954.06
2023-04-16T20:47:35.218Z,98967.53
2023-04-16T20:50:03.935Z,98971.03
2023-04-16T20:52:31.693Z,98974.41
2023-04-16T20:54:59.301Z,98971.09
2023-04-16T20:57:28.707Z,98974.03
2023-04-16T20:59:56.565Z,98964.59
2023-04-16T21:02:24.591Z,98972.75
2023-04-16T21:04:52.495Z,98977.41
2023-04-16T21:07:19.998Z,98969.84
2023-04-16T21:09:48.921Z,98972.47
2023-04-16T21:12:16.864Z,98978.69
2023-04-16T21:14:45.089Z,98974.19
2023-04-16T21:17:12.267Z,98983.84
2023-04-16T21:19:40.265Z,98985.63
2023-04-16T21:22:07.482Z,98984.69
2023-04-16T21:24:35.061Z,98985.41
2023-04-16T21:27:02.419Z,98984.47
2023-04-16T21:29:30.151Z,98980.91
2023-04-16T21:31:57.677Z,98982.47
2023-04-16T21:34:25.327Z,98974.63
2023-04-16T21:36:52.485Z,98975.50
2023-04-16T21:39:21.761Z,98974.47
2023-04-16T21:41:49.010Z,98971.84
2023-04-16T21:44:16.907Z,98979.06
2023-04-16T21:46:44.036Z,98971.31
2023-04-16T21:49:11.886Z,98971.31
2023-04-16T21:51:40.723Z,98971.47
2023-04-16T21:54:08.245Z,98968.25
2023-04-16T21:56:35.302Z,98971.13
2023-04-16T21:59:02.719Z,98974.09
2023-04-16T22:01:29.944Z,98973.50
2023-04-16T22:03:57.528Z,98975.50
2023-04-16T22:06:26.171Z,98967.84
2023-04-16T22:08:53.649Z,98969.69
2023-04-16T22:11:23.275Z,98969.06
2023-04-16T22:13:50.824Z,98974.63
2023-04-16T22:16:18.816Z,98979.91
2023-04-16T22:18:47.713Z,98965.09
2023-04-16T22:21:15.857Z,98973.09
2023-04-16T22:23:46.932Z,98970.50
2023-04-16T22:26:14.940Z,98972.41
2023-04-16T22:28:43.093Z,98970.78
2023-04-16T22:31:11.528Z,98970.97
2023-04-16T22:33:39.480Z,98970.25
2023-04-16T22:36:07.067Z,98964.25
2023-04-16T22:38:34.755Z,98973.97
2023-04-16T22:41:02.106Z,98965.22
2023-04-16T22:43:29.774Z,98966.06
2023-04-16T22:46:06.702Z,98966.06
2023-04-16T22:48:40.402Z,98957.22
2023-04-16T22:51:09.357Z,98962.50
2023-04-16T22:53:36.969Z,98963.16
2023-04-16T22:56:05.011Z,98961.47
2023-04-16T22:58:32.512Z,98954.50
2023-04-16T23:01:01.665Z,98961.66
2023-04-16T23:03:29.327Z,98963.50
2023-04-16T23:05:56.576Z,98959.22
2023-04-16T23:08:24.050Z,98959.47
2023-04-16T23:10:51.142Z,98956.09
2023-04-16T23:13:18.399Z,98958.00
2023-04-16T23:15:47.376Z,98961.59
2023-04-16T23:18:14.732Z,98953.72
2023-04-16T23:20:41.938Z,98953.00
2023-04-16T23:23:09.370Z,98956.56
2023-04-16T23:25:37.872Z,98956.63
2023-04-16T23:28:08.033Z,98961.00
2023-04-16T23:30:36.161Z,98957.47
2023-04-16T23:33:04.752Z,98956.63
2023-04-16T23:35:32.292Z,98954.09
2023-04-16T23:38:00.750Z,98949.88
2023-04-16T23:40:28.158Z,98958.00
2023-04-16T23:42:56.035Z,98949.34
2023-04-16T23:45:26.053Z,98952.97
2023-04-16T23:47:54.318Z,98959.19
2023-04-16T23:50:21.448Z,98946.88
2023-04-16T23:52:48.901Z,98955.75
2023-04-16T23:55:16.357Z,98954.94
2023-04-16T23:57:44.328Z,98957.78
